createdAt,value
2019-01-19T08:48:50.347Z,21.33
2019-01-19T08:51:18.535Z,27.67
2019-01-19T08:53:46.750Z,30.63
2019-01-19T08:56:14.635Z,31.23
2019-01-19T08:58:42.667Z,32.35
2019-01-19T09:01:11.014Z,31.94
2019-01-19T09:03:38.925Z,31.44
2019-01-19T09:06:07.172Z,31.33
2019-01-19T09:08:35.411Z,31.20
2019-01-19T09:11:03.719Z,31.12
2019-01-19T09:13:31.661Z,31.28
2019-01-19T09:16:10.367Z,31.37
2019-01-19T09:18:38.600Z,31.40
2019-01-19T09:21:06.482Z,31.45
2019-01-19T09:23:46.370Z,31.46
2019-01-19T09:26:14.431Z,31.46
2019-01-19T09:28:42.664Z,31.48
2019-01-19T09:31:10.728Z,31.46
2019-01-19T09:33:38.777Z,31.40
2019-01-19T09:36:07.193Z,31.35
2019-01-19T09:38:35.458Z,31.31
2019-01-19T09:41:03.447Z,31.33
2019-01-19T09:43:31.561Z,31.34
2019-01-19T09:45:59.497Z,31.35
2019-01-19T09:48:27.400Z,31.36
2019-01-19T09:50:57.082Z,31.56
2019-01-19T09:53:24.899Z,31.54
2019-01-19T09:55:52.772Z,31.68
2019-01-19T09:58:20.678Z,31.70
2019-01-19T10:00:49.405Z,31.72
2019-01-19T10:03:17.759Z,31.81
2019-01-19T10:05:46.199Z,31.79
2019-01-19T10:08:14.679Z,31.73
2019-01-19T10:10:44.223Z,31.77
2019-01-19T10:13:12.145Z,31.80
2019-01-19T10:15:40.426Z,31.77
2019-01-19T10:18:08.841Z,31.72
2019-01-19T10:20:37.007Z,31.84
2019-01-19T10:23:05.015Z,31.77
2019-01-19T10:25:32.938Z,31.75
2019-01-19T10:28:01.497Z,31.77
2019-01-19T10:30:29.412Z,31.77
2019-01-19T10:32:57.990Z,31.80
2019-01-19T10:35:26.303Z,31.77
2019-01-19T10:37:56.732Z,31.80
2019-01-19T10:40:23.930Z,31.80
2019-01-19T10:42:51.834Z,31.60
2019-01-19T10:45:20.977Z,31.59
2019-01-19T10:47:50.032Z,31.59
2019-01-19T10:50:18.162Z,31.65
2019-01-19T10:52:46.255Z,31.60
2019-01-19T10:55:15.380Z,31.58
2019-01-19T10:57:43.624Z,31.63
2019-01-19T11:00:30.640Z,31.61
2019-01-19T11:02:59.219Z,31.70
2019-01-19T11:05:28.044Z,31.64
2019-01-19T11:08:03.184Z,31.65
2019-01-19T11:10:27.137Z,31.56
2019-01-19T11:12:55.201Z,31.57
2019-01-19T11:15:23.208Z,31.66
2019-01-19T11:17:51.135Z,31.61
2019-01-19T11:20:19.853Z,31.59
2019-01-19T11:22:47.945Z,31.60
2019-01-19T11:25:15.918Z,31.53
2019-01-19T11:27:44.145Z,31.46
2019-01-19T11:30:22.236Z,31.32
2019-01-19T11:32:50.335Z,31.42
2019-01-19T11:35:18.728Z,32.22
2019-01-19T11:37:47.085Z,32.60
2019-01-19T11:40:16.501Z,32.63
2019-01-19T11:42:44.626Z,32.65
2019-01-19T11:45:14.280Z,32.58
2019-01-19T11:47:42.764Z,32.66
2019-01-19T11:50:10.826Z,32.61
2019-01-19T11:52:39.020Z,32.57
